• Join FlightAware (Why Join?)
  • Login
  • US Flag 
11:09AM EST


 

Airport Tracker/Info


-or-


 

Live Flight TrackerFlight Track Log ✈ SWA1496 ✈ 27-Apr-2013 ✈ KPHL - KMDW

Flight Track Log - Related Links

Times and Time Zones

All times are in EDT time to prevent confusion due to time zone crossing. See the SWA1496 flight status page for this flight to view local times or setup timezone preferences in your user account.

Time Position Orientation Groundspeed Altitude Reporting Facility
EDT Latitude Longitude Course Direction KTS MPH feet Rate Location/Type
07:21AM 39.8833 -75.2167 90° East 146 168 800  Level Philadelphia TRACON
07:22AM 39.8833 -75.1833 90° East 179 206 2,000 2,280 Climbing Philadelphia TRACON
07:23AM 39.9333 -75.1667 14° North 219 252 4,700 3,060 Climbing Philadelphia TRACON
07:24AM 39.9833 -75.2333 314° West 262 302 8,200 2,700 Climbing Philadelphia TRACON
07:25AM 40.0333 -75.3167 308° West 287 330 10,100 1,680 Climbing Philadelphia TRACON
07:26AM 40.1136 -75.4203 315° West 353 406 12,300 1,200 Climbing New York Center
07:27AM 40.1869 -75.5175 315° West 353 406 13,000 1,440 Climbing New York Center
07:28AM 40.2500 -75.6036 314° West 353 406 15,200 1,980 Climbing New York Center
07:29AM 40.3167 -75.7033 311° West 359 413 17,000 1,800 Climbing New York Center
07:30AM 40.3853 -75.8064 311° West 364 419 18,800 2,340 Climbing New York Center
07:31AM 40.4428 -75.9225 303° West 376 433 21,800 2,820 Climbing New York Center
07:32AM 40.4658 -76.0633 282° West 376 433 24,600 2,280 Climbing New York Center
07:33AM 40.4889 -76.2017 282° West 387 445 26,400 1,680 Climbing New York Center
07:34AM 40.5131 -76.3508 282° West 401 461 28,000 1,380 Climbing New York Center
07:35AM 40.5678 -76.4728 301° West 393 452 29,200 1,680 Climbing New York Center
07:36AM 40.6411 -76.5911 309° West 401 461 31,400 2,040 Climbing New York Center
07:37AM 40.7378 -76.6597 332° Northwest 393 452 33,300 1,800 Climbing New York Center
07:38AM 40.8367 -76.7231 334° Northwest 393 452 35,000 1,560 Climbing New York Center
07:39AM 40.8592 -76.8539 283° West 351 404 36,500 1,260 Climbing New York Center
07:40AM 40.8667 -76.9919 274° West 359 413 37,600 720 Climbing New York Center
07:41AM 40.8758 -77.1328 275° West 366 421 38,000 120 Climbing New York Center
07:43AM 40.8908 -77.4297 274° West 407 468 38,000  Level Cleveland Center
07:44AM 40.8967 -77.5697 273° West 401 461 38,000  Level Cleveland Center
07:45AM 40.9025 -77.7122 273° West 395 455 38,000  Level Cleveland Center
07:46AM 40.9081 -77.8519 273° West 389 448 38,000  Level Cleveland Center
07:47AM 40.9153 -77.9892 274° West 384 442 38,000  Level Cleveland Center
07:48AM 40.9308 -78.1289 278° West 384 442 38,000  Level Cleveland Center
07:49AM 40.9531 -78.2819 281° West 389 448 38,000  Level Cleveland Center
07:50AM 40.9703 -78.4217 279° West 389 448 38,000  Level Cleveland Center
07:51AM 40.9853 -78.5558 278° West 389 448 38,000  Level Cleveland Center
07:52AM 41.0042 -78.6928 280° West 389 448 38,000  Level Cleveland Center
07:53AM 41.0189 -78.8300 278° West 389 448 38,000  Level Cleveland Center
07:54AM 41.0333 -78.9564 279° West 389 448 38,000  Level Cleveland Center
07:55AM 41.0497 -79.0936 279° West 389 448 38,000  Level Cleveland Center
07:56AM 41.0661 -79.2336 279° West 389 448 38,000  Level Cleveland Center
07:57AM 41.0803 -79.3711 278° West 389 448 38,000  Level Cleveland Center
07:58AM 41.0961 -79.5086 279° West 389 448 38,000  Level Cleveland Center
07:59AM 41.1119 -79.6461 279° West 389 448 38,000  Level Cleveland Center
08:00AM 41.1256 -79.7864 277° West 389 448 38,000  Level Cleveland Center
08:01AM 41.1389 -79.9269 277° West 389 448 38,000  Level Cleveland Center
08:02AM 41.1561 -80.0619 280° West 389 448 38,000  Level Cleveland Center
08:03AM 41.1692 -80.1997 277° West 384 442 38,000  Level Cleveland Center
08:04AM 41.1864 -80.3514 279° West 384 442 38,000  Level Cleveland Center
08:05AM 41.1969 -80.4783 276° West 389 448 38,000  Level Cleveland Center
08:06AM 41.2117 -80.6136 278° West 384 442 38,000  Level Cleveland Center
08:07AM 41.2239 -80.7514 277° West 384 442 38,000  Level Cleveland Center
08:08AM 41.2383 -80.8897 278° West 384 442 38,000  Level Cleveland Center
08:09AM 41.2525 -81.0250 278° West 384 442 38,000  Level Cleveland Center
08:10AM 41.2644 -81.1578 277° West 377 434 38,000  Level Cleveland Center
08:11AM 41.2783 -81.2931 278° West 370 426 38,000  Level Cleveland Center
08:12AM 41.2919 -81.4261 278° West 370 426 38,000  Level Cleveland Center
08:13AM 41.3033 -81.5561 277° West 370 426 38,000  Level Cleveland Center
08:14AM 41.3167 -81.6861 278° West 365 420 38,000  Level Cleveland Center
08:15AM 41.3281 -81.8164 277° West 365 420 38,000  Level Cleveland Center
08:16AM 41.3411 -81.9522 277° West 365 420 38,000  Level Cleveland Center
08:17AM 41.3519 -82.0797 276° West 365 420 38,000  Level Cleveland Center
08:18AM 41.3606 -82.2153 275° West 372 428 38,000  Level Cleveland Center
08:19AM 41.3669 -82.3483 274° West 367 422 38,000  Level Cleveland Center
08:20AM 41.3769 -82.4981 275° West 367 422 38,000  Level Cleveland Center
08:21AM 41.3828 -82.6367 273° West 372 428 38,000  Level Cleveland Center
08:22AM 41.3906 -82.7753 274° West 372 428 38,000  Level Cleveland Center
08:23AM 41.4006 -82.9139 276° West 377 434 38,000  Level Cleveland Center
08:24AM 41.4058 -83.0497 273° West 377 434 38,000  Level Cleveland Center
08:25AM 41.4133 -83.1886 274° West 382 440 38,000  Level Cleveland Center
08:26AM 41.4183 -83.3244 273° West 382 440 38,000  Level Cleveland Center
08:27AM 41.4256 -83.4633 274° West 382 440 38,000 -420 Level Cleveland Center
08:28AM 41.4344 -83.5994 275° West 377 434 37,200 -900 Descending Cleveland Center
08:29AM 41.4389 -83.7408 272° West 377 434 36,300 -480 Descending Cleveland Center
08:31AM 41.4522 -83.9569 275° West 383 441 36,000 -120 Descending Chicago Center
08:32AM 41.4594 -84.1269 273° West 383 441 36,000 -600 Level Chicago Center
08:33AM 41.4656 -84.2667 273° West 379 436 34,800 -1,440 Descending Chicago Center
08:34AM 41.4717 -84.4031 273° West 370 426 33,100 -1,800 Descending Chicago Center
08:35AM 41.4772 -84.5406 273° West 371 427 31,200 -1,560 Descending Chicago Center
08:36AM 41.4817 -84.6775 273° West 370 426 30,000 -600 Descending Chicago Center
08:37AM 41.4875 -84.8236 273° West 393 452 30,000  Level Chicago Center
08:38AM 41.4931 -84.9839 273° West 427 491 30,000  Level Chicago Center
08:39AM 41.4986 -85.1489 273° West 440 506 30,000 -1,020 Level Chicago Center
08:40AM 41.5033 -85.3139 272° West 441 507 28,000 -2,100 Descending Chicago Center
08:41AM 41.5075 -85.4769 272° West 433 498 25,700 -2,580 Descending Chicago Center
08:42AM 41.5133 -85.6367 273° West 426 490 22,800 -2,400 Descending Chicago Center
08:43AM 41.5178 -85.7903 272° West 418 481 20,900 -1,860 Descending Chicago Center
08:44AM 41.5219 -85.9339 272° West 394 453 19,000 -2,460 Descending Chicago Center
08:45AM 41.5250 -86.1039 271° West 384 442 16,000 -2,640 Descending Chicago Center
08:46AM 41.5236 -86.2431 269° West 375 432 13,600 -2,400 Descending Chicago Center
08:47AM 41.5231 -86.3792 270° West 368 423 11,200 -1,740 Descending Chicago Center
08:48AM 41.5211 -86.5047 269° West 344 396 10,100 -540 Descending Chicago Center
08:49AM 41.5194 -86.6353 269° West 349 402 10,100  Level Chicago Center
08:50AM 41.5208 -86.7614 271° West 353 406 10,100 -300 Level Chicago Center
08:51AM 41.5186 -86.9028 269° West 317 365 9,500 -1,020 Descending Chicago Center
08:52AM 41.5178 -87.0089 269° West 289 333 8,100 -1,500 Descending Chicago Center
08:53AM 41.5172 -87.1144 270° West 286 329 6,500 -1,320 Descending Chicago Center
08:54AM 41.5167 -87.1833 269° West 281 323 6,000 -480 Descending Chicago TRACON
08:55AM 41.5500 -87.2667 298° West 277 319 5,900 -600 Descending Chicago TRACON
08:56AM 41.5833 -87.3500 298° West 271 312 5,000 -960 Descending Chicago TRACON
08:57AM 41.5978 -87.3950 293° West 274 315 4,300 -600 Descending Chicago Center
08:58AM 41.6292 -87.4836 295° West 269 310 4,000 -180 Descending Chicago Center
08:59AM 41.6642 -87.5814 296° West 257 296 4,000 -660 Level Chicago Center
09:00AM 41.7000 -87.6500 305° West 228 262 2,700 -960 Descending Chicago TRACON
09:00AM 41.7500 -87.6667 346° North 204 235 2,200 -540 Descending Chicago TRACON
09:01AM 41.8000 -87.6667 360° North 160 184 1,700 -420 Descending Chicago TRACON
09:02AM 41.8167 -87.7000 304° West 132 152 1,500 -240 Descending Chicago TRACON